sensor_id;sensor_type;location;lat;lon;timestamp;P1;durP1;ratioP1;P2;durP2;ratioP2
34471;SDS011;20710;49.976;19.836;2023-03-01T00:02:51;129.70;;;59.80;;
34471;SDS011;20710;49.976;19.836;2023-03-01T00:09:36;126.90;;;59.20;;
34471;SDS011;20710;49.976;19.836;2023-03-01T00:16:19;131.30;;;56.10;;
34471;SDS011;20710;49.976;19.836;2023-03-01T00:22:41;141.10;;;58.50;;
34471;SDS011;20710;49.976;19.836;2023-03-01T00:28:43;126.00;;;56.50;;
34471;SDS011;20710;49.976;19.836;2023-03-01T00:34:47;151.60;;;66.70;;
34471;SDS011;20710;49.976;19.836;2023-03-01T00:41:10;134.60;;;59.40;;
34471;SDS011;20710;49.976;19.836;2023-03-01T00:47:13;126.00;;;56.00;;
34471;SDS011;20710;49.976;19.836;2023-03-01T00:53:16;144.10;;;62.50;;
34471;SDS011;20710;49.976;19.836;2023-03-01T00:59:18;137.90;;;58.50;;
34471;SDS011;20710;49.976;19.836;2023-03-01T01:05:19;128.80;;;53.60;;
34471;SDS011;20710;49.976;19.836;2023-03-01T01:11:43;121.60;;;52.30;;
34471;SDS011;20710;49.976;19.836;2023-03-01T01:18:06;124.20;;;54.20;;
34471;SDS011;20710;49.976;19.836;2023-03-01T01:24:14;129.70;;;56.50;;
34471;SDS011;20710;49.976;19.836;2023-03-01T01:30:16;127.90;;;55.20;;
34471;SDS011;20710;49.976;19.836;2023-03-01T01:43:50;125.80;;;53.70;;
34471;SDS011;20710;49.976;19.836;2023-03-01T01:58:08;106.10;;;47.30;;
34471;SDS011;20710;49.976;19.836;2023-03-01T02:20:36;133.80;;;56.70;;
34471;SDS011;20710;49.976;19.836;2023-03-01T02:26:59;135.50;;;56.70;;
34471;SDS011;20710;49.976;19.836;2023-03-01T03:26:20;120.40;;;52.30;;
34471;SDS011;20710;49.976;19.836;2023-03-01T03:32:43;171.30;;;71.40;;
34471;SDS011;20710;49.976;19.836;2023-03-01T03:39:02;168.20;;;71.00;;
34471;SDS011;20710;49.976;19.836;2023-03-01T03:45:04;140.10;;;60.70;;
34471;SDS011;20710;49.976;19.836;2023-03-01T03:51:06;167.30;;;69.70;;
34471;SDS011;20710;49.976;19.836;2023-03-01T03:57:08;166.10;;;70.50;;
34471;SDS011;20710;49.976;19.836;2023-03-01T04:11:36;170.40;;;72.20;;
34471;SDS011;20710;49.976;19.836;2023-03-01T04:17:43;171.60;;;70.80;;
34471;SDS011;20710;49.976;19.836;2023-03-01T04:46:15;169.00;;;72.20;;
34471;SDS011;20710;49.976;19.836;2023-03-01T04:52:26;173.60;;;70.30;;
34471;SDS011;20710;49.976;19.836;2023-03-01T04:58:28;157.50;;;69.20;;
34471;SDS011;20710;49.976;19.836;2023-03-01T05:04:30;143.70;;;60.60;;
34471;SDS011;20710;49.976;19.836;2023-03-01T05:10:33;165.50;;;70.30;;
34471;SDS011;20710;49.976;19.836;2023-03-01T05:16:36;172.80;;;75.80;;
34471;SDS011;20710;49.976;19.836;2023-03-01T05:22:38;159.80;;;67.80;;
34471;SDS011;20710;49.976;19.836;2023-03-01T05:28:40;171.60;;;73.10;;
34471;SDS011;20710;49.976;19.836;2023-03-01T05:34:41;161.30;;;70.40;;
34471;SDS011;20710;49.976;19.836;2023-03-01T05:40:44;179.20;;;72.70;;
34471;SDS011;20710;49.976;19.836;2023-03-01T05:46:47;187.50;;;76.70;;
34471;SDS011;20710;49.976;19.836;2023-03-01T05:52:57;160.70;;;66.10;;
34471;SDS011;20710;49.976;19.836;2023-03-01T05:59:03;163.90;;;70.00;;
34471;SDS011;20710;49.976;19.836;2023-03-01T06:05:07;187.10;;;77.60;;
34471;SDS011;20710;49.976;19.836;2023-03-01T06:11:10;205.00;;;86.80;;
34471;SDS011;20710;49.976;19.836;2023-03-01T06:17:31;181.70;;;77.70;;
34471;SDS011;20710;49.976;19.836;2023-03-01T06:23:34;178.90;;;76.90;;
34471;SDS011;20710;49.976;19.836;2023-03-01T06:29:36;175.00;;;77.50;;
34471;SDS011;20710;49.976;19.836;2023-03-01T06:35:59;185.80;;;86.20;;
34471;SDS011;20710;49.976;19.836;2023-03-01T06:49:51;165.50;;;82.40;;
34471;SDS011;20710;49.976;19.836;2023-03-01T06:55:58;172.70;;;76.70;;
34471;SDS011;20710;49.976;19.836;2023-03-01T07:02:24;159.80;;;75.30;;
34471;SDS011;20710;49.976;19.836;2023-03-01T07:08:26;156.80;;;76.50;;
34471;SDS011;20710;49.976;19.836;2023-03-01T07:14:28;165.80;;;78.50;;
34471;SDS011;20710;49.976;19.836;2023-03-01T07:20:30;170.60;;;74.40;;
34471;SDS011;20710;49.976;19.836;2023-03-01T07:26:32;146.60;;;72.20;;
34471;SDS011;20710;49.976;19.836;2023-03-01T07:32:43;155.70;;;76.10;;
34471;SDS011;20710;49.976;19.836;2023-03-01T07:38:48;166.00;;;76.80;;
34471;SDS011;20710;49.976;19.836;2023-03-01T07:52:46;149.70;;;68.10;;
34471;SDS011;20710;49.976;19.836;2023-03-01T08:12:24;123.90;;;58.80;;
34471;SDS011;20710;49.976;19.836;2023-03-01T08:18:40;134.90;;;62.70;;
34471;SDS011;20710;49.976;19.836;2023-03-01T08:25:43;138.30;;;68.30;;
34471;SDS011;20710;49.976;19.836;2023-03-01T08:47:51;97.70;;;46.50;;
34471;SDS011;20710;49.976;19.836;2023-03-01T09:45:02;37.60;;;23.20;;
34471;SDS011;20710;49.976;19.836;2023-03-01T09:51:41;45.80;;;24.80;;
34471;SDS011;20710;49.976;19.836;2023-03-01T09:57:48;42.70;;;26.10;;
34471;SDS011;20710;49.976;19.836;2023-03-01T10:04:05;44.50;;;24.90;;
34471;SDS011;20710;49.976;19.836;2023-03-01T10:10:26;46.10;;;27.90;;
34471;SDS011;20710;49.976;19.836;2023-03-01T10:22:40;35.70;;;23.30;;
34471;SDS011;20710;49.976;19.836;2023-03-01T10:35:28;47.10;;;26.70;;
34471;SDS011;20710;49.976;19.836;2023-03-01T10:48:37;37.70;;;21.80;;
34471;SDS011;20710;49.976;19.836;2023-03-01T10:54:56;44.70;;;23.40;;
34471;SDS011;20710;49.976;19.836;2023-03-01T11:07:19;39.80;;;23.90;;
34471;SDS011;20710;49.976;19.836;2023-03-01T11:13:25;33.60;;;20.10;;
34471;SDS011;20710;49.976;19.836;2023-03-01T11:26:20;35.00;;;22.50;;
34471;SDS011;20710;49.976;19.836;2023-03-01T11:32:41;33.90;;;19.20;;
34471;SDS011;20710;49.976;19.836;2023-03-01T11:38:49;32.90;;;20.20;;
34471;SDS011;20710;49.976;19.836;2023-03-01T11:44:55;32.70;;;17.80;;
34471;SDS011;20710;49.976;19.836;2023-03-01T11:50:58;29.30;;;16.40;;
34471;SDS011;20710;49.976;19.836;2023-03-01T11:57:52;28.70;;;16.30;;
34471;SDS011;20710;49.976;19.836;2023-03-01T12:16:52;42.00;;;22.30;;
34471;SDS011;20710;49.976;19.836;2023-03-01T12:23:20;36.40;;;20.90;;
34471;SDS011;20710;49.976;19.836;2023-03-01T12:42:00;42.30;;;22.90;;
34471;SDS011;20710;49.976;19.836;2023-03-01T12:54:35;44.30;;;22.30;;
34471;SDS011;20710;49.976;19.836;2023-03-01T13:13:33;39.20;;;20.50;;
34471;SDS011;20710;49.976;19.836;2023-03-01T13:19:37;38.30;;;20.90;;
34471;SDS011;20710;49.976;19.836;2023-03-01T13:26:01;40.10;;;19.50;;
34471;SDS011;20710;49.976;19.836;2023-03-01T13:32:04;31.50;;;16.40;;
34471;SDS011;20710;49.976;19.836;2023-03-01T13:44:50;35.10;;;20.00;;
34471;SDS011;20710;49.976;19.836;2023-03-01T13:51:29;36.70;;;19.50;;
34471;SDS011;20710;49.976;19.836;2023-03-01T13:57:41;35.30;;;18.00;;
34471;SDS011;20710;49.976;19.836;2023-03-01T14:03:45;38.80;;;18.90;;
34471;SDS011;20710;49.976;19.836;2023-03-01T14:10:01;37.00;;;18.70;;
34471;SDS011;20710;49.976;19.836;2023-03-01T14:16:24;30.00;;;16.50;;
34471;SDS011;20710;49.976;19.836;2023-03-01T14:22:51;33.20;;;15.70;;
34471;SDS011;20710;49.976;19.836;2023-03-01T14:28:55;27.80;;;15.30;;
34471;SDS011;20710;49.976;19.836;2023-03-01T14:55:38;28.90;;;15.00;;
34471;SDS011;20710;49.976;19.836;2023-03-01T15:01:47;30.50;;;16.40;;
34471;SDS011;20710;49.976;19.836;2023-03-01T15:07:53;25.60;;;14.30;;
34471;SDS011;20710;49.976;19.836;2023-03-01T15:13:59;30.10;;;14.70;;
34471;SDS011;20710;49.976;19.836;2023-03-01T15:27:25;28.50;;;14.20;;
34471;SDS011;20710;49.976;19.836;2023-03-01T15:33:32;27.60;;;14.10;;
34471;SDS011;20710;49.976;19.836;2023-03-01T15:46:02;26.30;;;14.30;;
34471;SDS011;20710;49.976;19.836;2023-03-01T15:52:40;27.80;;;13.40;;
34471;SDS011;20710;49.976;19.836;2023-03-01T15:59:02;27.50;;;13.80;;
34471;SDS011;20710;49.976;19.836;2023-03-01T16:05:28;28.90;;;14.40;;
34471;SDS011;20710;49.976;19.836;2023-03-01T16:11:32;27.30;;;14.70;;
34471;SDS011;20710;49.976;19.836;2023-03-01T16:17:38;33.00;;;15.30;;
34471;SDS011;20710;49.976;19.836;2023-03-01T16:23:43;31.00;;;15.70;;
34471;SDS011;20710;49.976;19.836;2023-03-01T16:29:46;43.20;;;19.10;;
34471;SDS011;20710;49.976;19.836;2023-03-01T16:35:48;35.20;;;16.30;;
34471;SDS011;20710;49.976;19.836;2023-03-01T16:41:51;32.50;;;15.20;;
34471;SDS011;20710;49.976;19.836;2023-03-01T16:47:55;38.60;;;18.60;;
34471;SDS011;20710;49.976;19.836;2023-03-01T16:53:58;43.50;;;20.00;;
34471;SDS011;20710;49.976;19.836;2023-03-01T17:00:00;46.50;;;21.60;;
34471;SDS011;20710;49.976;19.836;2023-03-01T17:06:11;53.10;;;24.00;;
34471;SDS011;20710;49.976;19.836;2023-03-01T17:12:15;47.80;;;21.80;;
34471;SDS011;20710;49.976;19.836;2023-03-01T17:18:26;46.40;;;23.90;;
34471;SDS011;20710;49.976;19.836;2023-03-01T17:24:32;54.30;;;26.00;;
34471;SDS011;20710;49.976;19.836;2023-03-01T17:30:36;58.20;;;27.80;;
34471;SDS011;20710;49.976;19.836;2023-03-01T17:36:40;79.60;;;33.90;;
34471;SDS011;20710;49.976;19.836;2023-03-01T17:42:45;79.90;;;33.80;;
34471;SDS011;20710;49.976;19.836;2023-03-01T17:48:47;85.70;;;34.90;;
34471;SDS011;20710;49.976;19.836;2023-03-01T17:54:50;88.60;;;37.10;;
34471;SDS011;20710;49.976;19.836;2023-03-01T18:00:54;82.20;;;36.30;;
34471;SDS011;20710;49.976;19.836;2023-03-01T18:07:28;87.70;;;35.20;;
34471;SDS011;20710;49.976;19.836;2023-03-01T18:13:32;75.70;;;35.00;;
34471;SDS011;20710;49.976;19.836;2023-03-01T18:19:38;121.60;;;49.70;;
34471;SDS011;20710;49.976;19.836;2023-03-01T18:32:26;138.10;;;51.90;;
34471;SDS011;20710;49.976;19.836;2023-03-01T18:38:33;158.60;;;57.00;;
34471;SDS011;20710;49.976;19.836;2023-03-01T18:44:46;120.60;;;50.10;;
34471;SDS011;20710;49.976;19.836;2023-03-01T18:57:40;102.70;;;44.80;;
34471;SDS011;20710;49.976;19.836;2023-03-01T19:03:43;109.00;;;46.70;;
34471;SDS011;20710;49.976;19.836;2023-03-01T19:10:20;117.00;;;50.70;;
34471;SDS011;20710;49.976;19.836;2023-03-01T19:16:40;114.10;;;48.00;;
34471;SDS011;20710;49.976;19.836;2023-03-01T19:23:05;110.30;;;48.50;;
34471;SDS011;20710;49.976;19.836;2023-03-01T19:29:53;125.50;;;51.90;;
34471;SDS011;20710;49.976;19.836;2023-03-01T19:35:55;115.40;;;51.00;;
34471;SDS011;20710;49.976;19.836;2023-03-01T19:42:15;135.70;;;57.20;;
34471;SDS011;20710;49.976;19.836;2023-03-01T19:48:18;116.10;;;49.20;;
34471;SDS011;20710;49.976;19.836;2023-03-01T19:54:21;140.80;;;58.80;;
34471;SDS011;20710;49.976;19.836;2023-03-01T20:00:39;104.60;;;46.30;;
34471;SDS011;20710;49.976;19.836;2023-03-01T20:07:19;173.80;;;75.70;;
34471;SDS011;20710;49.976;19.836;2023-03-01T20:13:58;149.80;;;63.80;;
34471;SDS011;20710;49.976;19.836;2023-03-01T20:20:05;152.40;;;70.70;;
34471;SDS011;20710;49.976;19.836;2023-03-01T20:26:08;155.10;;;68.70;;
34471;SDS011;20710;49.976;19.836;2023-03-01T20:32:17;156.60;;;69.00;;
34471;SDS011;20710;49.976;19.836;2023-03-01T20:38:19;141.90;;;60.80;;
34471;SDS011;20710;49.976;19.836;2023-03-01T20:44:25;136.00;;;57.70;;
34471;SDS011;20710;49.976;19.836;2023-03-01T20:50:38;118.90;;;52.50;;
34471;SDS011;20710;49.976;19.836;2023-03-01T20:56:43;130.50;;;54.00;;
34471;SDS011;20710;49.976;19.836;2023-03-01T21:02:45;127.60;;;55.00;;
34471;SDS011;20710;49.976;19.836;2023-03-01T21:08:51;130.10;;;57.70;;
34471;SDS011;20710;49.976;19.836;2023-03-01T21:14:55;147.40;;;59.60;;
34471;SDS011;20710;49.976;19.836;2023-03-01T21:20:58;147.40;;;62.90;;
34471;SDS011;20710;49.976;19.836;2023-03-01T21:27:46;121.60;;;53.80;;
34471;SDS011;20710;49.976;19.836;2023-03-01T21:33:52;130.00;;;58.50;;
34471;SDS011;20710;49.976;19.836;2023-03-01T21:40:09;119.80;;;52.20;;
34471;SDS011;20710;49.976;19.836;2023-03-01T21:46:12;130.30;;;57.30;;
34471;SDS011;20710;49.976;19.836;2023-03-01T21:52:17;137.20;;;62.00;;
34471;SDS011;20710;49.976;19.836;2023-03-01T21:58:19;146.30;;;63.70;;
34471;SDS011;20710;49.976;19.836;2023-03-01T22:04:21;148.90;;;69.00;;
34471;SDS011;20710;49.976;19.836;2023-03-01T22:40:30;173.00;;;75.20;;
34471;SDS011;20710;49.976;19.836;2023-03-01T22:53:47;167.20;;;71.90;;
34471;SDS011;20710;49.976;19.836;2023-03-01T23:07:08;160.90;;;64.30;;
34471;SDS011;20710;49.976;19.836;2023-03-01T23:26:41;178.30;;;73.60;;
34471;SDS011;20710;49.976;19.836;2023-03-01T23:32:48;160.60;;;66.00;;
34471;SDS011;20710;49.976;19.836;2023-03-01T23:45:54;181.10;;;73.10;;
34471;SDS011;20710;49.976;19.836;2023-03-01T23:51:56;153.70;;;67.20;;
34471;SDS011;20710;49.976;19.836;2023-03-01T23:57:58;168.70;;;71.50;;
